createdAt,value
2018-07-09T00:00:10.260Z,0
2018-07-09T00:01:15.692Z,0
2018-07-09T00:02:20.857Z,0
2018-07-09T00:03:41.055Z,0
2018-07-09T00:04:45.934Z,0
2018-07-09T00:05:51.372Z,0
2018-07-09T00:06:56.770Z,0
2018-07-09T00:08:02.213Z,0
2018-07-09T00:09:06.239Z,0
2018-07-09T00:10:12.266Z,0
2018-07-09T00:11:16.882Z,0
2018-07-09T00:12:22.319Z,0
2018-07-09T00:13:28.206Z,0
2018-07-09T00:14:33.105Z,0
2018-07-09T00:15:39.145Z,0
2018-07-09T00:16:44.601Z,0
2018-07-09T00:17:50.082Z,0
2018-07-09T00:18:55.771Z,0
2018-07-09T00:20:00.647Z,0
2018-07-09T00:21:05.943Z,0
2018-07-09T00:22:11.648Z,0
2018-07-09T00:23:17.093Z,0
2018-07-09T00:24:22.261Z,0
2018-07-09T00:25:27.740Z,0
2018-07-09T00:26:32.635Z,0
2018-07-09T00:27:38.149Z,0
2018-07-09T00:28:43.598Z,0
2018-07-09T00:29:49.038Z,0
2018-07-09T00:30:54.272Z,0
2018-07-09T00:31:59.161Z,0
2018-07-09T00:33:04.339Z,0
2018-07-09T00:34:09.853Z,0
2018-07-09T00:35:14.176Z,0
2018-07-09T00:36:19.078Z,0
2018-07-09T00:37:24.483Z,0
2018-07-09T00:38:29.661Z,0
2018-07-09T00:39:35.216Z,0
2018-07-09T00:40:40.102Z,0
2018-07-09T00:41:45.268Z,0
2018-07-09T00:42:50.672Z,0
2018-07-09T00:43:55.563Z,0
2018-07-09T00:45:00.747Z,0
2018-07-09T00:46:06.162Z,0
2018-07-09T00:47:11.598Z,0
2018-07-09T00:48:16.807Z,0
2018-07-09T00:49:22.494Z,0
2018-07-09T00:50:27.086Z,0
2018-07-09T00:51:32.419Z,0
2018-07-09T00:52:37.292Z,0
2018-07-09T00:53:42.452Z,0
2018-07-09T00:54:48.010Z,0
2018-07-09T00:55:53.465Z,0
2018-07-09T00:56:58.911Z,0
2018-07-09T00:58:04.325Z,0
2018-07-09T00:59:09.785Z,0
2018-07-09T01:00:14.956Z,0
2018-07-09T01:01:20.760Z,0
2018-07-09T01:02:25.882Z,0
2018-07-09T01:03:31.450Z,0
2018-07-09T01:04:36.893Z,0
2018-07-09T01:05:41.771Z,0
2018-07-09T01:06:47.189Z,0
2018-07-09T01:07:52.355Z,0
2018-07-09T01:08:57.515Z,0
2018-07-09T01:10:02.093Z,0
2018-07-09T01:11:06.739Z,0
2018-07-09T01:12:12.281Z,0
2018-07-09T01:13:17.520Z,0
2018-07-09T01:14:22.688Z,0
2018-07-09T01:15:27.641Z,0
2018-07-09T01:16:32.566Z,0
2018-07-09T01:17:38.015Z,0
2018-07-09T01:18:44.296Z,0
2018-07-09T01:19:49.456Z,0
2018-07-09T01:20:54.930Z,0
2018-07-09T01:22:00.346Z,0
2018-07-09T01:23:04.942Z,0
2018-07-09T01:24:10.145Z,0
2018-07-09T01:25:15.897Z,0
2018-07-09T01:26:21.339Z,0
2018-07-09T01:27:26.217Z,0
2018-07-09T01:28:31.372Z,0
2018-07-09T01:29:35.984Z,0
2018-07-09T01:30:41.272Z,0
2018-07-09T01:31:46.176Z,0
2018-07-09T01:32:51.068Z,0
2018-07-09T01:33:56.644Z,0
2018-07-09T01:35:02.120Z,0
2018-07-09T01:36:06.441Z,0
2018-07-09T01:37:12.143Z,0
2018-07-09T01:38:17.604Z,0
2018-07-09T01:39:22.777Z,0
2018-07-09T01:40:28.111Z,0
2018-07-09T01:41:33.273Z,0
2018-07-09T01:42:38.965Z,0
2018-07-09T01:43:44.446Z,0
2018-07-09T01:44:49.329Z,0
2018-07-09T01:45:54.451Z,0
2018-07-09T01:46:59.343Z,0
2018-07-09T01:48:04.210Z,0
2018-07-09T01:49:09.079Z,0
2018-07-09T01:50:14.516Z,0
2018-07-09T01:51:19.413Z,0
2018-07-09T01:52:24.250Z,0
2018-07-09T01:53:29.423Z,0
2018-07-09T01:54:34.707Z,0
2018-07-09T01:55:40.158Z,0
2018-07-09T01:56:45.597Z,0
2018-07-09T01:57:51.295Z,0
2018-07-09T01:58:56.738Z,0
2018-07-09T02:00:01.904Z,0
2018-07-09T02:01:06.760Z,0
2018-07-09T02:02:12.225Z,0
2018-07-09T02:03:17.389Z,0
2018-07-09T02:04:22.237Z,0
2018-07-09T02:05:27.408Z,0
2018-07-09T02:06:33.269Z,0
2018-07-09T02:07:38.715Z,0
2018-07-09T02:08:43.880Z,0
2018-07-09T02:09:49.038Z,0
2018-07-09T02:10:53.919Z,0
2018-07-09T02:11:59.357Z,0
2018-07-09T02:13:04.781Z,0
2018-07-09T02:14:09.371Z,0
2018-07-09T02:15:14.257Z,0
2018-07-09T02:16:19.534Z,0
2018-07-09T02:17:24.130Z,0
2018-07-09T02:18:31.611Z,0
2018-07-09T02:19:36.505Z,0
2018-07-09T02:20:41.946Z,0
2018-07-09T02:21:47.657Z,0
2018-07-09T02:22:52.842Z,0
2018-07-09T02:23:58.007Z,0
2018-07-09T02:25:03.419Z,0
2018-07-09T02:26:08.303Z,0
2018-07-09T02:27:13.747Z,0
2018-07-09T02:28:19.535Z,0
2018-07-09T02:29:24.701Z,0
2018-07-09T02:30:30.072Z,0
2018-07-09T02:31:35.233Z,0
2018-07-09T02:32:40.682Z,0
2018-07-09T02:33:45.897Z,0
2018-07-09T02:34:50.779Z,0
2018-07-09T02:35:55.937Z,0
2018-07-09T02:37:01.183Z,0
2018-07-09T02:38:05.790Z,0
2018-07-09T02:39:10.674Z,0
2018-07-09T02:40:16.491Z,0
2018-07-09T02:41:21.371Z,0
2018-07-09T02:42:27.218Z,0
2018-07-09T02:43:32.112Z,0
2018-07-09T02:44:37.552Z,0
2018-07-09T02:45:42.967Z,0
2018-07-09T02:46:48.418Z,0
2018-07-09T02:47:53.308Z,0
2018-07-09T02:48:58.629Z,0
2018-07-09T02:50:03.315Z,0
2018-07-09T02:51:08.476Z,0
2018-07-09T02:52:13.463Z,0
2018-07-09T02:53:18.358Z,0
2018-07-09T02:54:23.502Z,0
2018-07-09T02:55:29.124Z,0
2018-07-09T02:56:34.069Z,0
2018-07-09T02:57:39.652Z,0
2018-07-09T02:58:44.792Z,0
2018-07-09T02:59:49.959Z,0
2018-07-09T03:00:55.156Z,0
2018-07-09T03:02:00.898Z,0
2018-07-09T03:03:06.345Z,0
2018-07-09T03:04:12.380Z,0
2018-07-09T03:05:17.825Z,0
2018-07-09T03:06:23.323Z,0
2018-07-09T03:07:29.395Z,0
2018-07-09T03:08:34.846Z,0
2018-07-09T03:09:40.640Z,0
2018-07-09T03:10:46.091Z,0
2018-07-09T03:11:51.242Z,0
2018-07-09T03:12:56.245Z,0
2018-07-09T03:14:01.413Z,0
2018-07-09T03:15:06.584Z,0
2018-07-09T03:16:12.370Z,0
2018-07-09T03:17:17.823Z,0
2018-07-09T03:18:22.420Z,0
2018-07-09T03:19:28.277Z,0
2018-07-09T03:20:33.145Z,0
2018-07-09T03:21:38.939Z,0
2018-07-09T03:22:44.386Z,0
2018-07-09T03:23:49.562Z,0
2018-07-09T03:24:54.700Z,0
2018-07-09T03:26:00.161Z,0
2018-07-09T03:27:05.600Z,0
2018-07-09T03:28:10.826Z,0
2018-07-09T03:29:16.296Z,0
2018-07-09T03:30:21.463Z,0
2018-07-09T03:31:26.598Z,0
2018-07-09T03:32:32.035Z,0
2018-07-09T03:33:37.184Z,0
2018-07-09T03:34:42.393Z,0
2018-07-09T03:35:47.821Z,0
2018-07-09T03:36:53.559Z,0
2018-07-09T03:37:58.726Z,0
2018-07-09T03:39:03.886Z,0
2018-07-09T03:40:09.681Z,0
2018-07-09T03:41:14.829Z,0
2018-07-09T03:42:20.275Z,0
2018-07-09T03:43:25.628Z,0
2018-07-09T03:44:30.781Z,0
2018-07-09T03:45:36.063Z,0
2018-07-09T03:46:41.215Z,0
2018-07-09T03:47:46.382Z,0
2018-07-09T03:48:52.235Z,0
2018-07-09T03:49:57.675Z,0
2018-07-09T03:51:02.265Z,0
2018-07-09T03:52:07.387Z,0
2018-07-09T03:53:11.973Z,0
2018-07-09T03:54:17.418Z,0
2018-07-09T03:55:22.255Z,0
2018-07-09T03:56:27.420Z,0
2018-07-09T03:57:32.457Z,0
2018-07-09T03:58:37.595Z,0
2018-07-09T03:59:43.057Z,0
2018-07-09T04:00:48.632Z,0
2018-07-09T04:01:53.818Z,0
2018-07-09T04:02:58.687Z,0
2018-07-09T04:04:04.389Z,0
2018-07-09T04:05:09.549Z,0
2018-07-09T04:06:14.976Z,0
2018-07-09T04:07:21.291Z,0
2018-07-09T04:08:26.178Z,0
2018-07-09T04:09:31.547Z,0
2018-07-09T04:10:36.989Z,0
2018-07-09T04:11:41.595Z,0
2018-07-09T04:12:46.986Z,0
2018-07-09T04:13:52.154Z,0
2018-07-09T04:14:57.596Z,0
2018-07-09T04:16:03.163Z,0
2018-07-09T04:17:08.602Z,0
2018-07-09T04:18:13.476Z,0
2018-07-09T04:19:19.225Z,0
2018-07-09T04:20:24.401Z,0
2018-07-09T04:21:29.717Z,0
2018-07-09T04:22:35.174Z,0
2018-07-09T04:23:40.054Z,0
2018-07-09T04:24:45.520Z,0
2018-07-09T04:25:50.976Z,0
2018-07-09T04:26:56.144Z,0
2018-07-09T04:28:01.584Z,0
2018-07-09T04:29:06.188Z,6
2018-07-09T04:30:11.347Z,0
2018-07-09T04:31:16.758Z,0
2018-07-09T04:32:21.919Z,0
2018-07-09T04:33:27.434Z,0
2018-07-09T04:34:32.325Z,0
2018-07-09T04:35:37.784Z,0
2018-07-09T04:36:42.628Z,0
2018-07-09T04:37:47.951Z,0
2018-07-09T04:38:53.368Z,0
2018-07-09T04:39:58.584Z,0
2018-07-09T04:41:03.205Z,0
2018-07-09T04:42:07.794Z,0
2018-07-09T04:43:13.461Z,0
2018-07-09T04:44:19.008Z,0
2018-07-09T04:45:25.052Z,6
2018-07-09T04:46:30.499Z,0
2018-07-09T04:47:35.941Z,0
2018-07-09T04:48:41.499Z,0
2018-07-09T04:49:46.939Z,6
2018-07-09T04:50:52.110Z,6
2018-07-09T04:51:57.670Z,24
2018-07-09T04:53:02.832Z,24
2018-07-09T04:54:08.031Z,24
2018-07-09T04:55:13.443Z,6
2018-07-09T04:56:18.587Z,6
2018-07-09T04:57:23.741Z,6
2018-07-09T04:58:43.798Z,24
2018-07-09T04:59:49.252Z,24
2018-07-09T05:00:54.370Z,31
2018-07-09T05:01:59.812Z,40
2018-07-09T05:03:04.988Z,31
2018-07-09T05:04:10.479Z,31
2018-07-09T05:05:15.380Z,40
2018-07-09T05:06:20.555Z,40
2018-07-09T05:07:26.617Z,24
2018-07-09T05:08:32.077Z,31
2018-07-09T05:09:37.501Z,31
2018-07-09T05:10:42.981Z,31
2018-07-09T05:11:48.143Z,31
2018-07-09T05:12:53.617Z,31
2018-07-09T05:13:59.066Z,31
2018-07-09T05:15:04.235Z,31
2018-07-09T05:16:09.673Z,31
2018-07-09T05:17:14.868Z,31
2018-07-09T05:18:20.315Z,31
2018-07-09T05:19:25.148Z,31
2018-07-09T05:20:30.366Z,55
2018-07-09T05:21:35.952Z,48
2018-07-09T05:22:41.169Z,48
2018-07-09T05:23:46.038Z,40
2018-07-09T05:24:51.715Z,40
2018-07-09T05:25:57.166Z,31
2018-07-09T05:27:02.054Z,31
2018-07-09T05:28:07.057Z,40
2018-07-09T05:29:12.217Z,55
2018-07-09T05:30:17.671Z,48
2018-07-09T05:31:23.253Z,40
2018-07-09T05:32:28.138Z,48
2018-07-09T05:33:34.334Z,55
2018-07-09T05:34:39.244Z,40
2018-07-09T05:35:44.707Z,64
2018-07-09T05:36:49.930Z,64
2018-07-09T05:37:54.517Z,64
2018-07-09T05:38:59.698Z,64
2018-07-09T05:40:05.644Z,37
2018-07-09T05:41:11.287Z,37
2018-07-09T05:42:16.756Z,48
2018-07-09T05:43:22.611Z,37
2018-07-09T05:44:27.474Z,64
2018-07-09T05:45:33.368Z,40
2018-07-09T05:46:38.829Z,31
2018-07-09T05:47:44.002Z,64
2018-07-09T05:48:49.520Z,37
2018-07-09T05:49:54.962Z,55
2018-07-09T05:51:00.415Z,55
2018-07-09T05:52:05.913Z,55
2018-07-09T05:53:11.077Z,40
2018-07-09T05:54:16.515Z,40
2018-07-09T05:55:21.937Z,40
2018-07-09T05:56:26.810Z,55
2018-07-09T05:57:32.854Z,55
2018-07-09T05:58:38.307Z,55
2018-07-09T05:59:44.110Z,55
2018-07-09T06:00:49.897Z,31
2018-07-09T06:01:55.069Z,55
2018-07-09T06:03:00.513Z,40
2018-07-09T06:04:05.542Z,40
2018-07-09T06:05:11.209Z,37
2018-07-09T06:06:16.084Z,37
2018-07-09T06:07:21.614Z,64
2018-07-09T06:08:26.486Z,55
2018-07-09T06:09:31.716Z,55
2018-07-09T06:10:37.156Z,55
2018-07-09T06:11:42.329Z,55
2018-07-09T06:12:47.899Z,55
2018-07-09T06:13:52.768Z,55
2018-07-09T06:14:57.944Z,55
2018-07-09T06:16:03.838Z,55
2018-07-09T06:17:08.717Z,64
2018-07-09T06:18:13.874Z,55
2018-07-09T06:19:19.443Z,55
2018-07-09T06:20:24.280Z,55
2018-07-09T06:21:30.300Z,55
2018-07-09T06:22:35.377Z,55
2018-07-09T06:23:40.556Z,55
2018-07-09T06:24:46.351Z,55
2018-07-09T06:25:51.231Z,55
2018-07-09T06:26:56.395Z,55
2018-07-09T06:28:01.787Z,55
2018-07-09T06:29:06.662Z,55
2018-07-09T06:30:11.536Z,55
2018-07-09T06:31:16.963Z,55
2018-07-09T06:32:22.126Z,55
2018-07-09T06:33:28.075Z,55
2018-07-09T06:34:33.513Z,55
2018-07-09T06:35:38.689Z,64
2018-07-09T06:36:59.079Z,64
2018-07-09T06:38:03.946Z,64
2018-07-09T06:39:09.122Z,24
2018-07-09T06:40:14.528Z,24
2018-07-09T06:41:19.416Z,24
2018-07-09T06:43:44.918Z,55
2018-07-09T06:44:50.822Z,55
2018-07-09T06:45:56.548Z,55
2018-07-09T06:47:01.980Z,55
2018-07-09T06:48:06.303Z,55
2018-07-09T06:49:11.720Z,55
2018-07-09T06:50:17.164Z,55
2018-07-09T06:51:22.625Z,55
2018-07-09T06:52:28.338Z,55
2018-07-09T06:53:32.983Z,55
2018-07-09T06:54:38.390Z,55
2018-07-09T06:55:42.978Z,55
2018-07-09T06:56:48.154Z,55
2018-07-09T06:57:53.314Z,55
2018-07-09T06:58:58.751Z,55
2018-07-09T07:00:03.336Z,55
2018-07-09T07:01:08.501Z,55
2018-07-09T07:02:13.433Z,55
2018-07-09T07:03:18.671Z,55
2018-07-09T07:04:24.177Z,55
2018-07-09T07:05:28.761Z,55
2018-07-09T07:06:33.638Z,55
2018-07-09T07:07:39.091Z,40
2018-07-09T07:08:44.484Z,55
2018-07-09T07:09:50.206Z,72
2018-07-09T07:10:55.095Z,55
2018-07-09T07:12:00.263Z,55
2018-07-09T07:13:05.382Z,55
2018-07-09T07:14:10.852Z,55
2018-07-09T07:15:16.370Z,55
2018-07-09T07:16:22.057Z,55
2018-07-09T07:17:27.219Z,55
2018-07-09T07:18:33.059Z,55
2018-07-09T07:19:37.381Z,55
2018-07-09T07:20:42.544Z,72
2018-07-09T07:21:48.558Z,72
2018-07-09T07:22:53.425Z,72
2018-07-09T07:23:58.301Z,72
2018-07-09T07:25:03.814Z,72
2018-07-09T07:26:08.972Z,72
2018-07-09T07:27:13.862Z,72
2018-07-09T07:28:19.219Z,72
2018-07-09T07:29:24.153Z,72
2018-07-09T07:30:29.053Z,72
2018-07-09T07:31:34.223Z,72
2018-07-09T07:32:39.452Z,72
2018-07-09T07:33:45.563Z,72
2018-07-09T07:34:51.011Z,72
2018-07-09T07:35:55.917Z,72
2018-07-09T07:37:01.717Z,72
2018-07-09T07:38:06.333Z,72
2018-07-09T07:39:11.215Z,72
2018-07-09T07:40:16.766Z,72
2018-07-09T07:41:21.704Z,72
2018-07-09T07:42:27.646Z,64
2018-07-09T07:43:32.525Z,72
2018-07-09T07:44:37.972Z,72
2018-07-09T07:45:43.140Z,72
2018-07-09T07:46:48.315Z,72
2018-07-09T07:47:53.464Z,72
2018-07-09T07:48:58.925Z,88
2018-07-09T07:50:03.209Z,88
2018-07-09T07:51:08.396Z,88
2018-07-09T07:52:13.830Z,88
2018-07-09T07:53:19.203Z,55
2018-07-09T07:54:24.093Z,79
2018-07-09T07:55:44.322Z,48
2018-07-09T07:56:49.814Z,79
2018-07-09T07:57:55.505Z,95
2018-07-09T07:59:00.670Z,95
2018-07-09T08:00:05.024Z,86
2018-07-09T08:01:09.724Z,86
2018-07-09T08:02:14.815Z,62
2018-07-09T08:03:19.985Z,72
2018-07-09T08:04:25.444Z,62
2018-07-09T08:05:30.492Z,72
2018-07-09T08:06:35.905Z,72
2018-07-09T08:07:40.521Z,72
2018-07-09T08:08:45.682Z,44
2018-07-09T08:09:51.104Z,72
2018-07-09T08:10:55.427Z,72
2018-07-09T08:13:29.745Z,72
2018-07-09T08:14:34.638Z,55
2018-07-09T08:15:40.659Z,55
2018-07-09T08:16:45.897Z,64
2018-07-09T08:17:50.790Z,86
2018-07-09T08:18:56.335Z,95
2018-07-09T08:20:01.517Z,95
2018-07-09T08:21:06.122Z,95
2018-07-09T08:22:11.072Z,95
2018-07-09T08:23:16.012Z,95
2018-07-09T08:24:21.455Z,95
2018-07-09T08:25:27.093Z,95
2018-07-09T08:26:32.618Z,95
2018-07-09T08:27:38.033Z,112
2018-07-09T08:28:43.694Z,86
2018-07-09T08:29:49.170Z,112
2018-07-09T08:30:54.777Z,86
2018-07-09T08:32:00.038Z,112
2018-07-09T08:33:05.212Z,112
2018-07-09T08:34:10.759Z,86
2018-07-09T08:35:15.952Z,86
2018-07-09T08:36:21.136Z,86
2018-07-09T08:37:26.922Z,86
2018-07-09T08:38:32.360Z,86
2018-07-09T08:39:37.794Z,434
2018-07-09T08:40:42.396Z,454
2018-07-09T08:41:47.589Z,454
2018-07-09T08:42:53.344Z,424
2018-07-09T08:43:58.224Z,424
2018-07-09T08:45:03.713Z,439
2018-07-09T08:46:08.868Z,424
2018-07-09T08:47:14.021Z,454
2018-07-09T08:48:19.226Z,424
2018-07-09T08:49:24.658Z,439
2018-07-09T08:50:30.127Z,409
2018-07-09T08:51:35.352Z,409
2018-07-09T08:52:40.532Z,418
2018-07-09T08:53:45.711Z,424
2018-07-09T08:54:51.286Z,439
2018-07-09T08:55:55.865Z,424
2018-07-09T08:57:01.033Z,418
2018-07-09T08:58:06.880Z,409
2018-07-09T08:59:12.037Z,424
2018-07-09T09:00:16.912Z,439
2018-07-09T09:01:21.869Z,424
2018-07-09T09:02:27.045Z,418
2018-07-09T09:03:33.302Z,424
2018-07-09T09:04:38.456Z,439
2018-07-09T09:05:44.431Z,424
2018-07-09T09:06:50.046Z,434
2018-07-09T09:07:55.212Z,424
2018-07-09T09:09:00.395Z,424
2018-07-09T09:10:05.344Z,409
2018-07-09T09:11:10.709Z,439
2018-07-09T09:12:16.149Z,409
2018-07-09T09:13:21.468Z,439
2018-07-09T09:14:26.645Z,434
2018-07-09T09:15:31.495Z,409
2018-07-09T09:16:37.413Z,439
2018-07-09T09:17:42.889Z,424
2018-07-09T09:18:48.577Z,424
2018-07-09T09:19:53.471Z,424
2018-07-09T09:20:58.624Z,434
2018-07-09T09:22:04.080Z,409
2018-07-09T09:23:09.245Z,439
2018-07-09T09:24:14.151Z,409
2018-07-09T09:25:19.179Z,424
2018-07-09T09:26:23.509Z,434
2018-07-09T09:27:30.153Z,434
2018-07-09T09:28:35.030Z,434
2018-07-09T09:29:39.922Z,439
2018-07-09T09:30:45.626Z,439
2018-07-09T09:31:50.800Z,439
2018-07-09T09:32:55.700Z,439
2018-07-09T09:34:01.504Z,393
2018-07-09T09:35:06.378Z,409
2018-07-09T09:36:11.536Z,409
2018-07-09T09:37:16.769Z,409
2018-07-09T09:38:22.221Z,424
2018-07-09T09:39:29.279Z,409
2018-07-09T09:40:34.433Z,439
2018-07-09T09:41:39.615Z,439
2018-07-09T09:42:45.304Z,424
2018-07-09T09:43:50.194Z,434
2018-07-09T09:44:55.557Z,424
2018-07-09T09:46:01.125Z,424
2018-07-09T09:47:06.004Z,409
2018-07-09T09:48:11.168Z,409
2018-07-09T09:49:16.745Z,424
2018-07-09T09:50:22.280Z,424
2018-07-09T09:51:27.989Z,439
2018-07-09T09:52:33.201Z,439
2018-07-09T09:53:38.695Z,424
2018-07-09T09:54:44.269Z,424
2018-07-09T09:55:49.151Z,424
2018-07-09T09:56:54.595Z,439
2018-07-09T09:58:00.400Z,439
2018-07-09T09:59:05.571Z,439
2018-07-09T10:00:10.649Z,439
2018-07-09T10:01:16.511Z,424
2018-07-09T10:02:21.684Z,424
2018-07-09T10:03:28.077Z,393
2018-07-09T10:04:33.529Z,409
2018-07-09T10:05:38.421Z,409
2018-07-09T10:06:43.833Z,439
2018-07-09T10:07:49.488Z,409
2018-07-09T10:08:54.930Z,409
2018-07-09T10:10:00.164Z,424
2018-07-09T10:11:05.348Z,439
2018-07-09T10:12:10.516Z,439
2018-07-09T10:13:16.227Z,409
2018-07-09T10:14:21.382Z,424
2018-07-09T10:15:41.446Z,439
2018-07-09T10:16:46.957Z,424
2018-07-09T10:17:52.929Z,439
2018-07-09T10:18:58.735Z,424
2018-07-09T10:20:03.335Z,424
2018-07-09T10:21:07.676Z,424
2018-07-09T10:22:12.795Z,424
2018-07-09T10:23:18.904Z,409
2018-07-09T10:24:24.325Z,439
2018-07-09T10:25:44.270Z,439
2018-07-09T10:26:49.437Z,424
2018-07-09T10:27:55.125Z,424
2018-07-09T10:29:00.292Z,424
2018-07-09T10:30:05.451Z,424
2018-07-09T10:31:10.599Z,409
2018-07-09T10:32:15.822Z,424
2018-07-09T10:33:21.266Z,409
2018-07-09T10:34:26.795Z,424
2018-07-09T10:35:32.259Z,424
2018-07-09T10:36:37.351Z,424
2018-07-09T10:37:42.811Z,424
2018-07-09T10:38:47.963Z,414
2018-07-09T10:39:52.925Z,393
2018-07-09T10:40:57.823Z,414
2018-07-09T10:42:02.437Z,409
2018-07-09T10:43:07.576Z,409
2018-07-09T10:44:12.460Z,424
2018-07-09T10:45:17.916Z,439
2018-07-09T10:46:23.342Z,439
2018-07-09T10:47:28.510Z,439
2018-07-09T10:48:33.667Z,439
2018-07-09T10:49:38.845Z,409
2018-07-09T10:50:44.167Z,409
2018-07-09T10:51:49.953Z,409
2018-07-09T10:52:54.848Z,439
2018-07-09T10:53:59.747Z,393
2018-07-09T10:55:05.506Z,424
2018-07-09T10:56:10.715Z,424
2018-07-09T10:57:15.909Z,424
2018-07-09T10:58:21.673Z,424
2018-07-09T10:59:26.260Z,409
2018-07-09T11:00:32.579Z,409
2018-07-09T11:01:38.029Z,424
2018-07-09T11:02:42.919Z,409
2018-07-09T11:03:48.605Z,439
2018-07-09T11:04:53.701Z,424
2018-07-09T11:05:58.291Z,393
2018-07-09T11:07:03.513Z,409
2018-07-09T11:08:08.387Z,424
2018-07-09T11:09:13.293Z,414
2018-07-09T11:10:19.041Z,393
2018-07-09T11:11:24.210Z,409
2018-07-09T11:12:29.771Z,414
2018-07-09T11:13:35.225Z,393
2018-07-09T11:14:40.375Z,424
2018-07-09T11:15:45.229Z,414
2018-07-09T11:16:50.676Z,424
2018-07-09T11:17:55.274Z,424
2018-07-09T11:19:00.567Z,424
2018-07-09T11:20:05.730Z,393
2018-07-09T11:21:10.819Z,409
2018-07-09T11:22:15.983Z,424
2018-07-09T11:23:21.435Z,409
2018-07-09T11:24:27.831Z,439
2018-07-09T11:25:33.270Z,424
2018-07-09T11:26:38.485Z,424
2018-07-09T11:27:44.159Z,409
2018-07-09T11:28:49.320Z,409
2018-07-09T11:29:54.501Z,393
2018-07-09T11:30:59.760Z,424
2018-07-09T11:32:04.361Z,424
2018-07-09T11:33:08.971Z,409
2018-07-09T11:34:13.382Z,409
2018-07-09T11:35:19.031Z,393
2018-07-09T11:37:44.424Z,409
2018-07-09T11:38:49.585Z,399
2018-07-09T11:39:54.913Z,414
2018-07-09T11:41:00.362Z,409
2018-07-09T11:42:05.619Z,424
2018-07-09T11:43:10.387Z,409
2018-07-09T11:44:15.250Z,414
2018-07-09T11:45:20.701Z,424
2018-07-09T11:46:26.386Z,409
2018-07-09T11:47:31.560Z,409
2018-07-09T11:48:37.270Z,424
2018-07-09T11:49:42.158Z,393
2018-07-09T11:50:47.027Z,409
2018-07-09T11:51:52.158Z,424
2018-07-09T11:52:57.604Z,414
2018-07-09T11:54:02.765Z,429
2018-07-09T11:55:08.231Z,414
2018-07-09T11:56:13.387Z,429
2018-07-09T11:57:18.581Z,409
2018-07-09T11:58:24.036Z,434
2018-07-09T11:59:29.204Z,439
2018-07-09T12:00:34.197Z,439
2018-07-09T12:01:39.647Z,418
2018-07-09T12:02:44.795Z,424
2018-07-09T12:03:50.219Z,454
2018-07-09T12:04:55.795Z,454
2018-07-09T12:06:00.413Z,439
2018-07-09T12:07:06.042Z,434
2018-07-09T12:08:11.205Z,434
2018-07-09T12:09:16.434Z,439
2018-07-09T12:10:22.153Z,424
2018-07-09T12:11:27.487Z,424
2018-07-09T12:12:33.212Z,424
2018-07-09T12:13:38.367Z,439
2018-07-09T12:14:42.980Z,454
2018-07-09T12:15:48.529Z,439
2018-07-09T12:16:53.709Z,424
2018-07-09T12:17:58.892Z,439
2018-07-09T12:19:04.052Z,439
2018-07-09T12:20:08.950Z,424
2018-07-09T12:21:13.824Z,434
2018-07-09T12:22:19.687Z,434
2018-07-09T12:23:24.851Z,464
2018-07-09T12:24:30.682Z,479
2018-07-09T12:25:35.761Z,459
2018-07-09T12:26:40.929Z,474
2018-07-09T12:27:46.629Z,489
2018-07-09T12:28:51.943Z,474
2018-07-09T12:29:57.642Z,489
2018-07-09T12:31:03.270Z,459
2018-07-09T12:32:08.150Z,443
2018-07-09T12:33:13.257Z,443
2018-07-09T12:34:19.275Z,443
2018-07-09T12:35:24.500Z,474
2018-07-09T12:36:30.789Z,474
2018-07-09T12:37:36.303Z,459
2018-07-09T12:38:41.752Z,474
2018-07-09T12:39:47.188Z,459
2018-07-09T12:40:52.334Z,474
2018-07-09T12:41:57.787Z,459
2018-07-09T12:43:03.449Z,459
2018-07-09T12:44:08.619Z,489
2018-07-09T12:45:13.771Z,489
2018-07-09T12:46:19.246Z,484
2018-07-09T12:47:24.417Z,474
2018-07-09T12:48:29.008Z,468
2018-07-09T12:49:33.608Z,468
2018-07-09T12:50:38.760Z,484
2018-07-09T12:51:43.920Z,484
2018-07-09T12:52:49.525Z,499
2018-07-09T12:53:55.016Z,518
2018-07-09T12:55:00.171Z,534
2018-07-09T12:56:05.344Z,534
2018-07-09T12:57:10.787Z,484
2018-07-09T12:58:15.670Z,499
2018-07-09T12:59:21.109Z,484
2018-07-09T13:00:26.283Z,509
2018-07-09T13:01:31.404Z,499
2018-07-09T13:02:37.175Z,514
2018-07-09T13:03:42.347Z,499
2018-07-09T13:04:47.791Z,509
2018-07-09T13:05:53.234Z,493
2018-07-09T13:06:58.718Z,509
2018-07-09T13:08:03.760Z,493
2018-07-09T13:09:08.928Z,509
2018-07-09T13:10:14.368Z,478
2018-07-09T13:11:20.041Z,524
2018-07-09T13:12:25.226Z,484
2018-07-09T13:13:30.387Z,499
2018-07-09T13:14:36.013Z,474
2018-07-09T13:15:41.172Z,474
2018-07-09T13:16:46.343Z,474
2018-07-09T13:17:51.518Z,459
2018-07-09T13:18:56.963Z,459
2018-07-09T13:20:02.058Z,474
2018-07-09T13:21:06.253Z,504
2018-07-09T13:22:11.428Z,499
2018-07-09T13:23:16.792Z,509
2018-07-09T13:24:22.238Z,514
2018-07-09T13:25:27.726Z,489
2018-07-09T13:26:33.489Z,499
2018-07-09T13:27:38.669Z,489
2018-07-09T13:28:43.830Z,468
2018-07-09T13:29:48.996Z,474
2018-07-09T13:30:54.519Z,489
2018-07-09T13:31:59.968Z,459
2018-07-09T13:33:05.404Z,459
2018-07-09T13:34:10.008Z,489
2018-07-09T13:35:15.175Z,468
2018-07-09T13:36:20.330Z,493
2018-07-09T13:37:24.927Z,484
2018-07-09T13:38:30.098Z,493
2018-07-09T13:39:34.957Z,524
2018-07-09T13:40:40.400Z,534
2018-07-09T13:41:45.851Z,499
2018-07-09T13:42:51.313Z,514
2018-07-09T13:43:56.496Z,484
2018-07-09T13:45:01.674Z,499
2018-07-09T13:46:06.280Z,534
2018-07-09T13:47:10.588Z,509
2018-07-09T13:48:15.745Z,543
2018-07-09T13:49:20.875Z,528
2018-07-09T13:50:26.037Z,549
2018-07-09T13:51:31.202Z,534
2018-07-09T13:52:36.654Z,534
2018-07-09T13:53:41.824Z,539
2018-07-09T13:54:47.271Z,524
2018-07-09T13:55:52.738Z,524
2018-07-09T13:56:57.897Z,509
2018-07-09T13:58:02.489Z,499
2018-07-09T13:59:07.353Z,474
2018-07-09T14:00:12.513Z,474
2018-07-09T14:01:17.710Z,489
2018-07-09T14:02:22.889Z,489
2018-07-09T14:03:28.050Z,504
2018-07-09T14:04:33.668Z,468
2018-07-09T14:05:38.828Z,493
2018-07-09T14:06:44.344Z,514
2018-07-09T14:07:49.802Z,518
2018-07-09T14:08:54.711Z,489
2018-07-09T14:10:00.171Z,499
2018-07-09T14:11:04.924Z,509
2018-07-09T14:12:10.104Z,493
2018-07-09T14:13:15.264Z,524
2018-07-09T14:14:20.150Z,509
2018-07-09T14:15:25.594Z,524
2018-07-09T14:16:30.194Z,518
2018-07-09T14:17:36.010Z,534
2018-07-09T14:18:41.261Z,484
2018-07-09T14:19:46.756Z,478
2018-07-09T14:20:52.201Z,518
2018-07-09T14:21:57.649Z,484
2018-07-09T14:23:03.058Z,503
2018-07-09T14:24:08.513Z,484
2018-07-09T14:25:13.393Z,489
2018-07-09T14:26:18.865Z,474
2018-07-09T14:27:24.025Z,474
2018-07-09T14:28:29.176Z,474
2018-07-09T14:29:34.211Z,474
2018-07-09T14:30:39.409Z,459
2018-07-09T14:31:44.891Z,474
2018-07-09T14:32:49.759Z,474
2018-07-09T14:33:54.925Z,459
2018-07-09T14:35:00.369Z,459
2018-07-09T14:36:04.988Z,459
2018-07-09T14:37:10.444Z,459
2018-07-09T14:38:15.917Z,474
2018-07-09T14:39:21.101Z,474
2018-07-09T14:40:25.409Z,484
2018-07-09T14:41:30.287Z,468
2018-07-09T14:42:35.736Z,489
2018-07-09T14:43:40.884Z,474
2018-07-09T14:44:45.763Z,464
2018-07-09T14:45:51.559Z,464
2018-07-09T14:46:57.037Z,464
2018-07-09T14:48:02.197Z,449
2018-07-09T14:49:07.036Z,449
2018-07-09T14:50:12.537Z,464
2018-07-09T14:51:17.687Z,449
2018-07-09T14:52:23.133Z,434
2018-07-09T14:53:28.617Z,418
2018-07-09T14:54:34.146Z,439
2018-07-09T14:55:38.724Z,454
2018-07-09T14:56:43.888Z,454
2018-07-09T14:57:49.315Z,439
2018-07-09T14:58:54.954Z,434
2018-07-09T14:59:59.267Z,424
2018-07-09T15:01:04.412Z,449
2018-07-09T15:02:09.767Z,439
2018-07-09T15:03:15.274Z,439
2018-07-09T15:04:20.867Z,449
2018-07-09T15:05:26.288Z,434
2018-07-09T15:06:32.077Z,434
2018-07-09T15:07:37.517Z,434
2018-07-09T15:08:42.402Z,439
2018-07-09T15:09:47.873Z,434
2018-07-09T15:10:53.057Z,439
2018-07-09T15:11:57.949Z,439
2018-07-09T15:13:03.950Z,434
2018-07-09T15:14:09.108Z,439
2018-07-09T15:15:14.274Z,454
2018-07-09T15:16:20.063Z,454
2018-07-09T15:17:25.257Z,434
2018-07-09T15:18:30.475Z,439
2018-07-09T15:19:35.938Z,449
2018-07-09T15:20:41.379Z,454
2018-07-09T15:21:47.047Z,439
2018-07-09T15:22:52.480Z,434
2018-07-09T15:23:57.937Z,449
2018-07-09T15:25:03.359Z,418
2018-07-09T15:26:08.793Z,449
2018-07-09T15:27:13.968Z,449
2018-07-09T15:28:19.767Z,449
2018-07-09T15:29:24.928Z,464
2018-07-09T15:30:30.586Z,434
2018-07-09T15:31:36.028Z,449